Portada
METAR-TAF:

METAR-TAF

Aeroports :

Zhengzhou, Xina

latitud: 34-43N, longitud: 113-39E, altitud: 111 m

Observació

L'informe es va fer fa 32 minuts, a les 00:00 UTC
Vent 2 kt amb direcció variable
Temperatura -1°C
Humitat 93%
Pressió 1027 hPa
Visibilitat: 4000 m
boirina

METAR: ZHCC 060000Z VRB01MPS 4000 BR NSC M01/M02 Q1027 NOSIG

Hora: 08:32 (00:32 UTC)

Pronòstic

L'informe es va fer fa 3 hores i 29 minuts, a les 21:03 UTC
Pronòstic vàlid del 06 a les 00 UTC al 06 a les 24 UTC
Vent 8 kt del Oest/Nord-Oest
Visibilitat: 5000 m
calitja

TAF: ZHCC 052103Z 0600/0624 30004MPS 5000 HZ NSC TX10/0607Z TN00/0622Z

Observacions i pronòstics meteorològics de més de 4000 aeroports (METAR i TAF).

Les estacions disponibles són els punts grocs i vermells al mapa.

Posi el ratolí al punt desitjat per veure el nom de l'estació.

Feu clic per veure les observacions i els pronòstics meteorològics.

Per canviar el mapa: feu clic els botons verds amb una creu de color negre per apropar; al botó verd amb un guió per allunyar la imatge; o en les fletxes verdes per a mapes adjacents.


METAR-TAF: